createdAt,value
2024-01-15T00:02:26.866Z,100174.80
2024-01-15T00:04:54.817Z,100175.60
2024-01-15T00:07:22.879Z,100173.80
2024-01-15T00:09:50.844Z,100173.40
2024-01-15T00:12:18.712Z,100166.20
2024-01-15T00:14:46.626Z,100163.80
2024-01-15T00:17:14.630Z,100173.40
2024-01-15T00:19:42.577Z,100179.40
2024-01-15T00:22:10.592Z,100175.20
2024-01-15T00:24:38.554Z,100173.80
2024-01-15T00:27:06.472Z,100168.60
2024-01-15T00:29:34.488Z,100165.20
2024-01-15T00:32:02.493Z,100167.60
2024-01-15T00:34:30.431Z,100162.80
2024-01-15T00:36:58.466Z,100159.60
2024-01-15T00:39:27.261Z,100162.80
2024-01-15T00:41:55.108Z,100160.00
2024-01-15T00:44:23.112Z,100158.40
2024-01-15T00:46:51.051Z,100154.60
2024-01-15T00:49:19.316Z,100148.80
2024-01-15T00:51:47.275Z,100141.80
2024-01-15T00:54:15.227Z,100143.00
2024-01-15T00:56:43.011Z,100137.00
2024-01-15T00:59:11.656Z,100132.00
2024-01-15T01:01:39.576Z,100134.00
2024-01-15T01:04:07.679Z,100134.20
2024-01-15T01:06:35.648Z,100129.60
2024-01-15T01:09:03.756Z,100131.20
2024-01-15T01:11:31.949Z,100125.00
2024-01-15T01:13:59.921Z,100123.80
2024-01-15T01:16:27.835Z,100126.20
2024-01-15T01:18:55.939Z,100127.00
2024-01-15T01:21:23.976Z,100120.00
2024-01-15T01:23:51.931Z,100123.40
2024-01-15T01:26:19.975Z,100122.80
2024-01-15T01:28:47.899Z,100117.60
2024-01-15T01:31:17.869Z,100121.00
2024-01-15T01:33:45.894Z,100124.80
2024-01-15T01:36:13.880Z,100124.80
2024-01-15T01:38:42.105Z,100130.40
2024-01-15T01:41:10.221Z,100134.60
2024-01-15T01:43:38.122Z,100131.60
2024-01-15T01:46:06.753Z,100124.80
2024-01-15T01:48:34.960Z,100126.80
2024-01-15T01:51:05.598Z,100128.20
2024-01-15T01:53:37.075Z,100125.80
2024-01-15T01:56:05.963Z,100125.00
2024-01-15T01:58:34.973Z,100123.00
2024-01-15T02:01:03.145Z,100126.00
2024-01-15T02:03:32.211Z,100117.80
2024-01-15T02:06:01.702Z,100116.60
2024-01-15T02:08:30.380Z,100114.40
2024-01-15T02:10:58.270Z,100118.80
2024-01-15T02:13:26.232Z,100120.20
2024-01-15T02:15:54.141Z,100117.20
2024-01-15T02:18:22.496Z,100113.80
2024-01-15T02:20:50.509Z,100117.60
2024-01-15T02:23:18.602Z,100117.60
2024-01-15T02:25:48.349Z,100122.60
2024-01-15T02:28:18.476Z,100127.40
2024-01-15T02:30:47.471Z,100125.00
2024-01-15T02:33:15.699Z,100125.40
2024-01-15T02:35:43.802Z,100121.80
2024-01-15T02:38:11.652Z,100121.40
2024-01-15T02:40:39.888Z,100116.60
2024-01-15T02:43:08.143Z,100115.00
2024-01-15T02:45:36.164Z,100112.20
2024-01-15T02:48:04.305Z,100112.20
2024-01-15T02:50:32.581Z,100111.20
2024-01-15T02:53:00.433Z,100111.80
2024-01-15T02:55:30.868Z,100105.00
2024-01-15T02:57:59.073Z,100105.20
2024-01-15T03:00:26.986Z,100107.80
2024-01-15T03:02:56.140Z,100106.00
2024-01-15T03:05:24.271Z,100104.40
2024-01-15T03:07:52.315Z,100105.40
2024-01-15T03:10:20.201Z,100101.80
2024-01-15T03:12:48.219Z,100100.40
2024-01-15T03:15:16.196Z,100104.20
2024-01-15T03:17:44.289Z,100100.80
2024-01-15T03:20:12.888Z,100106.60
2024-01-15T03:22:40.749Z,100109.80
2024-01-15T03:25:09.196Z,100114.80
2024-01-15T03:27:37.201Z,100110.00
2024-01-15T03:30:06.156Z,100110.80
2024-01-15T03:32:34.266Z,100114.20
2024-01-15T03:35:02.429Z,100114.60
2024-01-15T03:37:30.342Z,100110.80
2024-01-15T03:39:58.331Z,100115.20
2024-01-15T03:42:26.361Z,100113.20
2024-01-15T03:44:54.221Z,100115.40
2024-01-15T03:47:22.091Z,100111.20
2024-01-15T03:49:50.224Z,100111.40
2024-01-15T03:52:18.259Z,100111.20
2024-01-15T03:54:46.168Z,100103.80
2024-01-15T03:57:14.094Z,100103.80
2024-01-15T03:59:42.918Z,100101.60
2024-01-15T04:02:10.758Z,100099.20
2024-01-15T04:04:43.677Z,100101.60
2024-01-15T04:07:11.691Z,100101.20
2024-01-15T04:09:39.708Z,100092.00
2024-01-15T04:12:07.928Z,100094.00
2024-01-15T04:14:35.834Z,100088.80
2024-01-15T04:17:03.811Z,100088.20
2024-01-15T04:19:31.680Z,100084.80
2024-01-15T04:21:59.488Z,100082.60
2024-01-15T04:24:27.346Z,100078.80
2024-01-15T04:26:55.403Z,100074.80
2024-01-15T04:29:23.188Z,100081.00
2024-01-15T04:31:51.330Z,100080.20
2024-01-15T04:34:19.460Z,100069.00
2024-01-15T04:36:47.426Z,100079.80
2024-01-15T04:39:15.325Z,100080.00
2024-01-15T04:41:43.200Z,100082.40
2024-01-15T04:44:11.085Z,100080.80
2024-01-15T04:46:38.941Z,100082.80
2024-01-15T04:49:06.929Z,100081.20
2024-01-15T04:51:36.081Z,100076.60
2024-01-15T04:54:04.315Z,100075.00
2024-01-15T04:56:32.193Z,100069.40
2024-01-15T04:59:00.046Z,100077.20
2024-01-15T05:01:35.134Z,100081.00
2024-01-15T05:04:03.476Z,100084.80
2024-01-15T05:06:31.439Z,100079.80
2024-01-15T05:08:59.357Z,100078.20
2024-01-15T05:11:27.245Z,100069.80
2024-01-15T05:13:55.076Z,100069.40
2024-01-15T05:16:22.915Z,100067.80
2024-01-15T05:18:51.024Z,100071.20
2024-01-15T05:21:19.081Z,100072.40
2024-01-15T05:23:46.995Z,100080.80
2024-01-15T05:26:14.946Z,100079.80
2024-01-15T05:28:43.894Z,100080.60
2024-01-15T05:31:12.343Z,100080.60
2024-01-15T05:33:40.452Z,100073.00
2024-01-15T05:36:08.752Z,100081.80
2024-01-15T05:38:36.640Z,100075.40
2024-01-15T05:41:04.679Z,100074.60
2024-01-15T05:43:32.815Z,100081.00
2024-01-15T05:46:00.835Z,100072.20
2024-01-15T05:48:28.865Z,100068.60
2024-01-15T05:50:56.799Z,100069.80
2024-01-15T05:53:24.624Z,100081.40
2024-01-15T05:55:52.506Z,100078.80
2024-01-15T05:58:20.362Z,100085.80
2024-01-15T06:00:49.256Z,100079.20
2024-01-15T06:03:17.225Z,100079.20
2024-01-15T06:05:45.216Z,100083.60
2024-01-15T06:08:13.299Z,100084.00
2024-01-15T06:10:41.238Z,100083.80
2024-01-15T06:13:09.138Z,100092.80
2024-01-15T06:15:37.033Z,100092.60
2024-01-15T06:18:05.710Z,100098.60
2024-01-15T06:20:34.182Z,100100.60
2024-01-15T06:23:02.044Z,100104.60
2024-01-15T06:25:29.900Z,100105.60
2024-01-15T06:27:58.055Z,100101.40
2024-01-15T06:30:26.069Z,100102.40
2024-01-15T06:32:54.104Z,100099.40
2024-01-15T06:35:23.810Z,100100.20
2024-01-15T06:37:51.856Z,100092.40
2024-01-15T06:40:19.673Z,100104.80
2024-01-15T06:42:47.605Z,100099.20
2024-01-15T06:45:15.631Z,100106.80
2024-01-15T06:47:43.572Z,100108.80
2024-01-15T06:50:11.601Z,100110.00
2024-01-15T06:52:39.885Z,100115.60
2024-01-15T06:55:08.561Z,100115.60
2024-01-15T06:57:36.485Z,100118.20
2024-01-15T07:00:09.134Z,100115.80
2024-01-15T07:02:37.384Z,100117.00
2024-01-15T07:05:06.387Z,100116.60
2024-01-15T07:07:34.384Z,100108.80
2024-01-15T07:10:02.281Z,100099.60
2024-01-15T07:12:31.084Z,100103.40
2024-01-15T07:14:58.987Z,100102.80
2024-01-15T07:17:27.030Z,100107.80
2024-01-15T07:19:55.007Z,100113.20
2024-01-15T07:22:22.954Z,100111.40
2024-01-15T07:24:50.866Z,100115.80
2024-01-15T07:27:18.822Z,100119.00
2024-01-15T07:29:46.855Z,100123.60
2024-01-15T07:32:14.792Z,100121.60
2024-01-15T07:34:42.874Z,100123.80
2024-01-15T07:37:11.091Z,100122.60
2024-01-15T07:39:39.349Z,100122.80
2024-01-15T07:42:07.614Z,100126.40
2024-01-15T07:44:35.446Z,100126.40
2024-01-15T07:47:03.367Z,100133.40
2024-01-15T07:49:31.389Z,100128.40
2024-01-15T07:51:59.326Z,100121.40
2024-01-15T07:54:27.309Z,100125.00
2024-01-15T07:57:02.063Z,100125.60
2024-01-15T07:59:30.379Z,100128.80
2024-01-15T08:02:00.878Z,100129.80
2024-01-15T08:04:29.303Z,100126.80
2024-01-15T08:06:58.251Z,100120.00
2024-01-15T08:09:26.292Z,100123.60
2024-01-15T08:11:54.139Z,100127.60
2024-01-15T08:14:21.974Z,100127.00
2024-01-15T08:16:49.888Z,100129.40
2024-01-15T08:19:17.988Z,100132.00
2024-01-15T08:21:46.150Z,100145.60
2024-01-15T08:24:15.951Z,100139.80
2024-01-15T08:26:44.298Z,100144.00
2024-01-15T08:29:12.267Z,100141.00
2024-01-15T08:31:40.315Z,100145.20
2024-01-15T08:34:09.339Z,100151.00
2024-01-15T08:36:37.570Z,100154.40
2024-01-15T08:39:05.637Z,100161.80
2024-01-15T08:41:34.740Z,100173.60
2024-01-15T08:44:03.978Z,100177.00
2024-01-15T08:46:31.861Z,100186.80
2024-01-15T08:48:59.733Z,100186.40
2024-01-15T08:51:27.785Z,100191.80
2024-01-15T08:53:57.800Z,100194.20
2024-01-15T08:56:25.660Z,100194.40
2024-01-15T08:58:53.562Z,100187.60
2024-01-15T09:01:21.718Z,100203.20
2024-01-15T09:03:49.923Z,100205.60
2024-01-15T09:06:18.261Z,100210.80
2024-01-15T09:08:46.096Z,100208.80
2024-01-15T09:11:13.933Z,100207.60
2024-01-15T09:13:41.745Z,100202.80
2024-01-15T09:16:09.603Z,100205.60
2024-01-15T09:18:37.630Z,100216.60
2024-01-15T09:21:06.335Z,100226.80
2024-01-15T09:23:34.128Z,100232.40
2024-01-15T09:26:01.994Z,100227.40
2024-01-15T09:28:29.831Z,100223.40
2024-01-15T09:30:57.900Z,100222.00
2024-01-15T09:33:25.937Z,100217.20
2024-01-15T09:35:54.097Z,100223.40
2024-01-15T09:38:22.307Z,100226.40
2024-01-15T09:40:50.217Z,100226.00
2024-01-15T09:43:18.816Z,100223.60
2024-01-15T09:45:47.427Z,100224.60
2024-01-15T09:48:15.542Z,100228.00
2024-01-15T09:50:44.350Z,100226.60
2024-01-15T09:53:14.981Z,100242.40
2024-01-15T09:55:42.886Z,100247.40
2024-01-15T09:58:11.655Z,100249.40
2024-01-15T10:00:42.787Z,100241.60
2024-01-15T10:03:12.517Z,100249.80
2024-01-15T10:05:40.691Z,100241.60
2024-01-15T10:08:08.998Z,100248.00
2024-01-15T10:10:38.753Z,100236.60
2024-01-15T10:13:08.360Z,100245.20
2024-01-15T10:15:39.690Z,100247.20
2024-01-15T10:18:07.843Z,100250.00
2024-01-15T10:20:35.761Z,100247.20
2024-01-15T10:23:04.980Z,100248.80
2024-01-15T10:25:32.889Z,100263.60
2024-01-15T10:28:05.753Z,100275.00
2024-01-15T10:30:34.830Z,100268.00
2024-01-15T10:33:05.376Z,100273.00
2024-01-15T10:35:35.702Z,100272.80
2024-01-15T10:38:04.323Z,100264.40
2024-01-15T10:40:33.361Z,100267.20
2024-01-15T10:43:01.321Z,100267.00
2024-01-15T10:45:29.325Z,100267.40
2024-01-15T10:48:00.701Z,100266.80
2024-01-15T10:50:30.857Z,100265.60
2024-01-15T10:52:59.323Z,100256.00
2024-01-15T10:55:28.473Z,100258.00
2024-01-15T10:57:57.879Z,100259.60
2024-01-15T11:00:26.637Z,100265.00
2024-01-15T11:02:58.391Z,100249.00
2024-01-15T11:05:26.685Z,100252.80
2024-01-15T11:07:57.973Z,100263.20
2024-01-15T11:10:42.591Z,100260.00
2024-01-15T11:13:21.874Z,100267.80
2024-01-15T11:16:16.115Z,100268.80
2024-01-15T11:19:03.830Z,100274.60
2024-01-15T11:21:32.335Z,100283.00
2024-01-15T11:24:02.644Z,100289.00
2024-01-15T11:26:48.288Z,100281.80
2024-01-15T11:29:30.648Z,100287.20
2024-01-15T11:32:02.049Z,100285.40
2024-01-15T11:34:59.560Z,100287.00
2024-01-15T11:37:49.950Z,100280.60
2024-01-15T11:40:24.067Z,100273.60
2024-01-15T11:42:53.818Z,100271.80
2024-01-15T11:45:23.421Z,100277.60
2024-01-15T11:48:18.563Z,100279.60
2024-01-15T11:50:53.471Z,100284.20
2024-01-15T11:53:43.468Z,100288.60
2024-01-15T11:56:24.631Z,100287.40
2024-01-15T11:58:52.873Z,100303.60
2024-01-15T12:01:21.988Z,100299.60
2024-01-15T12:03:49.962Z,100300.40
2024-01-15T12:06:18.231Z,100305.00
2024-01-15T12:08:46.398Z,100303.80
2024-01-15T12:11:19.863Z,100303.00
2024-01-15T12:13:47.825Z,100295.40
2024-01-15T12:16:16.123Z,100298.00
2024-01-15T12:18:44.339Z,100297.00
2024-01-15T12:21:12.286Z,100291.40
2024-01-15T12:23:40.824Z,100290.20
2024-01-15T12:26:08.978Z,100290.60
2024-01-15T12:28:37.875Z,100300.80
2024-01-15T12:31:06.939Z,100299.60
2024-01-15T12:33:35.106Z,100299.60
2024-01-15T12:36:03.250Z,100298.20
2024-01-15T12:38:31.120Z,100297.80
2024-01-15T12:40:59.228Z,100303.40
2024-01-15T12:43:27.657Z,100308.20
2024-01-15T12:45:55.583Z,100301.60
2024-01-15T12:48:23.708Z,100302.00
2024-01-15T12:50:53.688Z,100305.60
2024-01-15T12:53:21.532Z,100299.00
2024-01-15T12:55:49.337Z,100289.60
2024-01-15T12:58:19.329Z,100292.00
2024-01-15T13:00:48.952Z,100298.80
2024-01-15T13:03:17.336Z,100291.20
2024-01-15T13:05:46.675Z,100292.00
2024-01-15T13:08:14.873Z,100288.20
2024-01-15T13:10:43.423Z,100290.60
2024-01-15T13:13:11.399Z,100293.80
2024-01-15T13:15:39.382Z,100291.80
2024-01-15T13:18:08.018Z,100292.60
2024-01-15T13:20:36.316Z,100292.00
2024-01-15T13:23:05.290Z,100294.60
2024-01-15T13:25:34.971Z,100292.40
2024-01-15T13:28:03.797Z,100291.00
2024-01-15T13:30:32.618Z,100289.60
2024-01-15T13:33:05.484Z,100287.60
2024-01-15T13:35:33.653Z,100285.80
2024-01-15T13:38:01.582Z,100286.20
2024-01-15T13:40:29.530Z,100285.00
2024-01-15T13:42:57.558Z,100285.60
2024-01-15T13:45:25.588Z,100288.00
2024-01-15T13:47:53.581Z,100285.40
2024-01-15T13:50:23.361Z,100287.40
2024-01-15T13:52:52.330Z,100286.40
2024-01-15T13:55:20.939Z,100289.60
2024-01-15T13:57:48.863Z,100294.40
2024-01-15T14:00:19.965Z,100293.80
2024-01-15T14:02:49.146Z,100287.60
2024-01-15T14:05:17.467Z,100287.60
2024-01-15T14:07:45.409Z,100282.60
2024-01-15T14:10:13.268Z,100275.60
2024-01-15T14:12:41.758Z,100266.40
2024-01-15T14:15:10.237Z,100271.40
2024-01-15T14:17:39.270Z,100269.40
2024-01-15T14:20:10.438Z,100270.60
2024-01-15T14:22:38.389Z,100279.00
2024-01-15T14:25:06.636Z,100271.40
2024-01-15T14:27:34.517Z,100273.00
2024-01-15T14:30:02.398Z,100276.20
2024-01-15T14:32:30.593Z,100273.80
2024-01-15T14:34:58.645Z,100276.80
2024-01-15T14:37:26.753Z,100275.00
2024-01-15T14:39:54.730Z,100282.00
2024-01-15T14:42:23.395Z,100282.60
2024-01-15T14:44:51.295Z,100282.80
2024-01-15T14:47:21.163Z,100283.00
2024-01-15T14:49:49.956Z,100282.00
2024-01-15T14:52:17.973Z,100275.80
2024-01-15T14:54:45.933Z,100289.60
2024-01-15T14:57:13.882Z,100284.40
2024-01-15T14:59:41.997Z,100282.80
2024-01-15T15:02:12.447Z,100291.60
2024-01-15T15:04:41.798Z,100285.20
2024-01-15T15:07:11.704Z,100292.40
2024-01-15T15:09:39.999Z,100300.20
2024-01-15T15:12:08.489Z,100308.40
2024-01-15T15:14:45.465Z,100308.40
2024-01-15T15:17:19.373Z,100307.40
2024-01-15T15:19:47.452Z,100307.20
2024-01-15T15:22:15.459Z,100309.00
2024-01-15T15:24:43.479Z,100316.20
2024-01-15T15:27:11.428Z,100315.60
2024-01-15T15:29:39.297Z,100308.20
2024-01-15T15:32:07.223Z,100307.60
2024-01-15T15:34:35.168Z,100313.80
2024-01-15T15:37:03.294Z,100308.00
2024-01-15T15:39:32.175Z,100318.60
2024-01-15T15:42:00.050Z,100324.80
2024-01-15T15:44:27.868Z,100334.20
2024-01-15T15:46:55.748Z,100337.20
2024-01-15T15:49:23.730Z,100334.60
2024-01-15T15:51:51.799Z,100335.40
2024-01-15T15:54:19.665Z,100338.40
2024-01-15T15:56:50.892Z,100336.20
2024-01-15T15:59:19.858Z,100331.00
2024-01-15T16:01:49.555Z,100333.40
2024-01-15T16:04:18.920Z,100331.40
2024-01-15T16:06:48.294Z,100343.20
2024-01-15T16:09:16.218Z,100349.60
2024-01-15T16:11:44.350Z,100350.00
2024-01-15T16:14:12.321Z,100350.00
2024-01-15T16:23:12.122Z,100356.80
2024-01-15T16:23:25.373Z,100356.40
2024-01-15T16:23:40.917Z,100359.00
2024-01-15T16:25:04.889Z,100365.40
2024-01-15T16:27:34.109Z,100370.40
2024-01-15T16:30:03.629Z,100374.80
2024-01-15T16:32:32.960Z,100373.00
2024-01-15T16:35:01.042Z,100379.80
2024-01-15T16:37:29.072Z,100374.40
2024-01-15T16:39:56.940Z,100377.00
2024-01-15T16:42:25.183Z,100380.40
2024-01-15T16:44:53.217Z,100371.40
2024-01-15T16:47:21.217Z,100371.60
2024-01-15T16:49:49.231Z,100375.40
2024-01-15T16:52:17.062Z,100379.00
2024-01-15T16:54:44.867Z,100375.40
2024-01-15T16:57:12.758Z,100376.40
2024-01-15T16:59:40.710Z,100377.80
2024-01-15T17:02:09.119Z,100376.60
2024-01-15T17:04:37.051Z,100377.40
2024-01-15T17:07:04.959Z,100383.00
2024-01-15T17:09:32.867Z,100388.00
2024-01-15T17:12:00.675Z,100391.00
2024-01-15T17:14:28.782Z,100393.80
2024-01-15T17:16:56.711Z,100393.00
2024-01-15T17:19:24.672Z,100397.00
2024-01-15T17:21:54.281Z,100402.80
2024-01-15T17:24:22.387Z,100409.40
2024-01-15T17:26:51.149Z,100409.40
2024-01-15T17:29:20.904Z,100413.60
2024-01-15T17:31:49.669Z,100412.40
2024-01-15T17:34:17.620Z,100412.40
2024-01-15T17:36:45.509Z,100413.00
2024-01-15T17:39:14.624Z,100418.60
2024-01-15T17:41:43.091Z,100423.60
2024-01-15T17:44:11.148Z,100424.20
2024-01-15T17:46:40.297Z,100423.40
2024-01-15T17:49:08.254Z,100417.60
2024-01-15T17:51:36.371Z,100421.60
2024-01-15T17:54:09.940Z,100420.00
2024-01-15T17:56:40.024Z,100417.20
2024-01-15T17:59:08.016Z,100414.40
2024-01-15T18:01:37.476Z,100419.20
2024-01-15T18:04:05.369Z,100419.20
2024-01-15T18:06:33.254Z,100428.00
2024-01-15T18:09:01.215Z,100431.00
2024-01-15T18:11:29.312Z,100430.20
2024-01-15T18:13:57.296Z,100436.40
2024-01-15T18:16:25.525Z,100437.20
2024-01-15T18:18:53.752Z,100438.00
2024-01-15T18:21:23.940Z,100437.80
2024-01-15T18:23:51.889Z,100432.80
2024-01-15T18:26:19.832Z,100436.20
2024-01-15T18:28:47.750Z,100439.20
2024-01-15T18:31:15.851Z,100443.40
2024-01-15T18:33:43.764Z,100440.60
2024-01-15T18:36:13.304Z,100444.20
2024-01-15T18:38:41.254Z,100449.80
2024-01-15T18:41:09.333Z,100451.80
2024-01-15T18:43:37.596Z,100452.60
2024-01-15T18:46:09.243Z,100452.40
2024-01-15T18:48:37.508Z,100456.40
2024-01-15T18:51:05.672Z,100461.80
2024-01-15T18:53:33.626Z,100465.20
2024-01-15T18:56:03.444Z,100460.20
2024-01-15T18:58:32.325Z,100458.60
2024-01-15T19:01:00.745Z,100454.80
2024-01-15T19:03:28.757Z,100458.80
2024-01-15T19:05:56.677Z,100456.80
2024-01-15T19:08:24.618Z,100457.20
2024-01-15T19:10:52.785Z,100461.80
2024-01-15T19:13:20.740Z,100461.40
2024-01-15T19:15:51.690Z,100469.20
2024-01-15T19:18:19.764Z,100469.20
2024-01-15T19:20:48.042Z,100467.40
2024-01-15T19:23:16.113Z,100464.20
2024-01-15T19:25:44.060Z,100462.60
2024-01-15T19:28:11.953Z,100462.60
2024-01-15T19:30:40.989Z,100460.80
2024-01-15T19:33:09.109Z,100463.00
2024-01-15T19:35:37.373Z,100464.00
2024-01-15T19:38:07.096Z,100471.00
2024-01-15T19:40:35.554Z,100475.40
2024-01-15T19:43:04.399Z,100471.40
2024-01-15T19:45:32.204Z,100471.60
2024-01-15T19:48:00.562Z,100475.00
2024-01-15T19:50:28.684Z,100475.20
2024-01-15T19:52:56.536Z,100479.00
2024-01-15T19:55:24.519Z,100478.40
2024-01-15T19:57:52.421Z,100477.40
2024-01-15T20:00:20.779Z,100486.00
2024-01-15T20:02:48.674Z,100486.40
2024-01-15T20:05:17.244Z,100489.20
2024-01-15T20:07:45.212Z,100481.40
2024-01-15T20:10:13.093Z,100479.20
2024-01-15T20:12:41.119Z,100480.80
2024-01-15T20:15:09.633Z,100485.80
2024-01-15T20:17:37.797Z,100486.40
2024-01-15T20:20:11.699Z,100489.40
2024-01-15T20:22:39.891Z,100478.60
2024-01-15T20:25:10.466Z,100480.60
2024-01-15T20:27:38.452Z,100478.20
2024-01-15T20:30:07.348Z,100479.00
2024-01-15T20:32:36.001Z,100483.00
2024-01-15T20:35:04.688Z,100484.20
2024-01-15T20:37:32.632Z,100483.20
2024-01-15T20:40:00.603Z,100476.00
2024-01-15T20:42:28.581Z,100474.40
2024-01-15T20:44:56.405Z,100469.00
2024-01-15T20:47:24.251Z,100464.20
2024-01-15T20:49:52.264Z,100467.00
2024-01-15T20:52:22.456Z,100475.20
2024-01-15T20:54:51.630Z,100475.60
2024-01-15T20:57:19.476Z,100483.40
2024-01-15T20:59:51.749Z,100477.20
2024-01-15T21:02:20.189Z,100474.20
2024-01-15T21:04:48.187Z,100472.60
2024-01-15T21:07:15.995Z,100474.20
2024-01-15T21:09:43.933Z,100476.80
2024-01-15T21:12:12.025Z,100468.20
2024-01-15T21:14:40.333Z,100481.60
2024-01-15T21:17:08.384Z,100484.80
2024-01-15T21:19:36.522Z,100481.60
2024-01-15T21:22:04.479Z,100479.60
2024-01-15T21:24:32.504Z,100484.00
2024-01-15T21:27:00.526Z,100485.80
2024-01-15T21:29:28.660Z,100481.20
2024-01-15T21:31:56.644Z,100482.20
2024-01-15T21:34:24.536Z,100486.80
2024-01-15T21:36:52.568Z,100483.40
2024-01-15T21:39:21.438Z,100483.80
2024-01-15T21:41:50.624Z,100486.40
2024-01-15T21:44:18.693Z,100494.20
2024-01-15T21:46:46.621Z,100494.20
2024-01-15T21:49:14.532Z,100493.60
2024-01-15T21:51:42.349Z,100498.80
2024-01-15T21:54:10.188Z,100502.20
2024-01-15T21:56:38.148Z,100503.60
2024-01-15T21:59:06.328Z,100499.00
2024-01-15T22:01:34.159Z,100506.60
2024-01-15T22:04:02.126Z,100508.00
2024-01-15T22:06:35.905Z,100510.20
2024-01-15T22:09:04.147Z,100514.60
2024-01-15T22:11:32.127Z,100516.60
2024-01-15T22:14:00.020Z,100517.00
2024-01-15T22:16:27.995Z,100512.60
2024-01-15T22:18:58.670Z,100502.20
2024-01-15T22:21:28.688Z,100504.00
2024-01-15T22:23:56.670Z,100509.40
2024-01-15T22:26:24.588Z,100506.20
2024-01-15T22:28:52.406Z,100508.60
2024-01-15T22:31:20.172Z,100505.00
2024-01-15T22:33:48.091Z,100506.60
2024-01-15T22:36:16.057Z,100503.80
2024-01-15T22:38:44.097Z,100501.40
2024-01-15T22:41:12.220Z,100495.20
2024-01-15T22:43:40.055Z,100498.60
2024-01-15T22:46:08.023Z,100498.80
2024-01-15T22:48:36.036Z,100495.80
2024-01-15T22:51:04.153Z,100500.60
2024-01-15T22:53:32.078Z,100502.60
2024-01-15T22:56:02.748Z,100503.20
2024-01-15T22:58:30.686Z,100499.60
2024-01-15T23:01:00.509Z,100497.80
2024-01-15T23:03:28.802Z,100500.40
2024-01-15T23:05:56.791Z,100495.60
2024-01-15T23:08:24.717Z,100503.40
2024-01-15T23:10:52.689Z,100497.80
2024-01-15T23:13:20.503Z,100503.60
2024-01-15T23:15:48.489Z,100506.80
2024-01-15T23:18:16.437Z,100501.20
2024-01-15T23:20:44.484Z,100503.00
2024-01-15T23:23:12.510Z,100500.40
2024-01-15T23:25:40.939Z,100496.60
2024-01-15T23:28:08.864Z,100502.80
2024-01-15T23:30:36.772Z,100501.80
2024-01-15T23:33:05.382Z,100492.60
2024-01-15T23:35:33.403Z,100489.60
2024-01-15T23:38:01.312Z,100494.60
2024-01-15T23:40:29.174Z,100492.60
2024-01-15T23:42:57.124Z,100484.00
2024-01-15T23:45:25.179Z,100485.80
2024-01-15T23:47:53.074Z,100491.20
2024-01-15T23:50:20.975Z,100487.00
2024-01-15T23:52:49.027Z,100487.00
2024-01-15T23:55:17.035Z,100480.00
2024-01-15T23:57:44.928Z,100474.00
